Yangon, Burma
Current Conditions -  °F | °C
As of 4:30 PM on Monday 22 Dec 2014 (Local Time) from VYYY Reporting Station
Clear Clear  
Wind Chill: 29°   Ceiling: Unl
Heat Index: 29°   Visibility: 5mi
Dew Point: 16°   Wind: 6mph
Humidity: 45%   Direction: 90°E
Pressure: 29.85"   Gusts: NA
Location:  16.79°N, 96.15°E
Report Text: VYYY 221030Z 09005KT 8000 R21/2000N NSC 29/16 Q1011
Loading
Personal Weather Stations






























Interactive Weather Map New forecast layout! Learn more

10-Day Weather Forecast

Advertisements
Track Severe Weather on mobile